createdAt,value
2017-01-06T00:00:04.130Z,10.36
2017-01-06T00:01:14.873Z,10.55
2017-01-06T00:02:25.205Z,10.55
2017-01-06T00:03:35.928Z,10.55
2017-01-06T00:04:45.855Z,10.64
2017-01-06T00:05:56.184Z,10.64
2017-01-06T00:07:06.895Z,10.55
2017-01-06T00:08:17.218Z,10.55
2017-01-06T00:09:27.939Z,10.55
2017-01-06T00:10:38.683Z,10.55
2017-01-06T00:11:48.625Z,10.64
2017-01-06T00:12:59.339Z,10.55
2017-01-06T00:14:09.679Z,10.36
2017-01-06T00:15:20.094Z,10.64
2017-01-06T00:16:30.818Z,10.46
2017-01-06T00:17:41.538Z,10.46
2017-01-06T00:18:52.274Z,10.36
2017-01-06T00:20:03.003Z,10.64
2017-01-06T00:21:13.733Z,10.45
2017-01-06T00:22:24.076Z,10.64
2017-01-06T00:23:35.044Z,10.35
2017-01-06T00:24:45.355Z,10.64
2017-01-06T00:25:56.072Z,10.55
2017-01-06T00:27:05.215Z,10.64
2017-01-06T00:28:15.151Z,10.74
2017-01-06T00:29:25.477Z,10.46
2017-01-06T00:30:36.203Z,10.93
2017-01-06T00:31:46.933Z,10.64
2017-01-06T00:32:57.263Z,10.64
2017-01-06T00:34:07.192Z,10.74
2017-01-06T00:35:17.157Z,11.13
2017-01-06T00:36:27.736Z,10.83
2017-01-06T00:37:38.056Z,10.93
2017-01-06T00:38:48.385Z,10.64
2017-01-06T00:39:59.102Z,10.64
2017-01-06T00:41:09.438Z,10.45
2017-01-06T00:42:20.161Z,10.45
2017-01-06T00:43:30.094Z,10.74
2017-01-06T00:44:40.430Z,10.45
2017-01-06T00:45:51.259Z,10.55
2017-01-06T00:47:01.989Z,10.46
2017-01-06T00:48:12.696Z,10.64
2017-01-06T00:49:23.422Z,10.55
2017-01-06T00:50:34.145Z,10.55
2017-01-06T00:51:44.868Z,10.45
2017-01-06T00:52:55.589Z,10.45
2017-01-06T00:54:06.305Z,10.74
2017-01-06T00:55:17.028Z,10.55
2017-01-06T00:56:27.777Z,10.45
2017-01-06T00:57:38.494Z,10.74
2017-01-06T00:58:48.830Z,10.64
2017-01-06T00:59:58.766Z,10.64
2017-01-06T01:01:09.092Z,10.64
2017-01-06T01:02:19.415Z,10.64
2017-01-06T01:03:28.942Z,10.84
2017-01-06T01:04:38.875Z,10.64
2017-01-06T01:05:49.201Z,10.64
2017-01-06T01:06:59.944Z,10.74
2017-01-06T01:08:10.269Z,10.55
2017-01-06T01:09:20.599Z,10.93
2017-01-06T01:10:31.329Z,10.93
2017-01-06T01:11:41.664Z,10.64
2017-01-06T01:12:51.588Z,10.93
2017-01-06T01:14:02.311Z,11.02
2017-01-06T01:15:12.654Z,11.13
2017-01-06T01:16:22.974Z,10.93
2017-01-06T01:17:33.297Z,10.74
2017-01-06T01:18:43.617Z,11.12
2017-01-06T01:19:54.340Z,10.74
2017-01-06T01:21:05.066Z,10.74
2017-01-06T01:22:15.771Z,10.64
2017-01-06T01:23:25.700Z,11.03
2017-01-06T01:24:36.417Z,10.64
2017-01-06T01:25:46.359Z,10.74
2017-01-06T01:26:57.073Z,10.64
2017-01-06T01:28:07.392Z,10.74
2017-01-06T01:29:16.919Z,10.64
2017-01-06T01:30:27.242Z,10.64
2017-01-06T01:31:37.165Z,10.64
2017-01-06T01:32:47.495Z,10.55
2017-01-06T01:33:57.851Z,11.13
2017-01-06T01:35:08.577Z,11.12
2017-01-06T01:36:19.290Z,10.55
2017-01-06T01:37:30.260Z,10.55
2017-01-06T01:38:40.590Z,11.02
2017-01-06T01:39:50.916Z,10.93
2017-01-06T01:41:01.638Z,11.02
2017-01-06T01:42:12.356Z,10.64
2017-01-06T01:43:22.675Z,10.93
2017-01-06T01:44:33.002Z,10.74
2017-01-06T01:45:43.716Z,10.83
2017-01-06T01:46:54.046Z,10.93
2017-01-06T01:48:03.992Z,11.02
2017-01-06T01:49:14.301Z,10.83
2017-01-06T01:50:23.840Z,10.93
2017-01-06T01:51:34.560Z,11.02
2017-01-06T01:52:44.490Z,10.83
2017-01-06T01:53:55.204Z,10.55
2017-01-06T01:55:05.140Z,10.64
2017-01-06T01:56:15.463Z,10.93
2017-01-06T01:57:26.185Z,11.22
2017-01-06T01:58:36.502Z,10.93
2017-01-06T01:59:47.220Z,10.74
2017-01-06T02:00:57.943Z,11.12
2017-01-06T02:02:08.263Z,10.64
2017-01-06T02:03:18.995Z,10.64
2017-01-06T02:04:28.937Z,10.74
2017-01-06T02:05:39.259Z,10.74
2017-01-06T02:06:49.984Z,10.46
2017-01-06T02:07:59.517Z,11.12
2017-01-06T02:09:09.840Z,11.13
2017-01-06T02:10:19.369Z,10.55
2017-01-06T02:11:30.096Z,10.55
2017-01-06T02:12:40.806Z,10.93
2017-01-06T02:13:51.145Z,11.03
2017-01-06T02:15:01.463Z,10.93
2017-01-06T02:16:11.785Z,10.84
2017-01-06T02:17:22.112Z,11.02
2017-01-06T02:18:32.435Z,10.93
2017-01-06T02:19:43.151Z,10.74
2017-01-06T02:20:53.485Z,10.84
2017-01-06T02:22:04.211Z,10.83
2017-01-06T02:23:14.937Z,11.02
2017-01-06T02:24:25.647Z,10.83
2017-01-06T02:25:36.358Z,11.12
2017-01-06T02:26:46.681Z,10.74
2017-01-06T02:27:56.624Z,10.74
2017-01-06T02:29:07.350Z,10.93
2017-01-06T02:30:17.673Z,10.93
2017-01-06T02:31:27.611Z,10.93
2017-01-06T02:32:37.148Z,11.02
2017-01-06T02:33:47.481Z,10.93
2017-01-06T02:34:58.198Z,10.93
2017-01-06T02:36:08.521Z,11.22
2017-01-06T02:37:18.044Z,11.02
2017-01-06T02:38:28.778Z,10.93
2017-01-06T02:39:39.487Z,11.12
2017-01-06T02:40:50.191Z,11.12
2017-01-06T02:42:00.128Z,10.74
2017-01-06T02:43:10.482Z,11.02
2017-01-06T02:44:20.409Z,11.03
2017-01-06T02:45:30.738Z,11.02
2017-01-06T02:46:41.461Z,10.83
2017-01-06T02:47:51.839Z,11.13
2017-01-06T02:49:02.159Z,10.93
2017-01-06T02:50:12.875Z,10.93
2017-01-06T02:51:23.592Z,10.74
2017-01-06T02:52:33.524Z,11.12
2017-01-06T02:53:44.280Z,11.02
2017-01-06T02:54:54.604Z,10.93
2017-01-06T02:56:05.329Z,10.74
2017-01-06T02:57:15.643Z,11.02
2017-01-06T02:58:26.379Z,11.22
2017-01-06T02:59:36.708Z,10.74
2017-01-06T03:00:47.448Z,11.02
2017-01-06T03:01:57.766Z,11.02
2017-01-06T03:03:08.487Z,10.83
2017-01-06T03:04:18.804Z,11.12
2017-01-06T03:05:29.127Z,11.02
2017-01-06T03:06:38.666Z,11.02
2017-01-06T03:07:48.992Z,10.83
2017-01-06T03:08:59.740Z,10.93
2017-01-06T03:10:10.064Z,11.03
2017-01-06T03:11:20.384Z,10.93
2017-01-06T03:12:30.710Z,10.83
2017-01-06T03:13:41.440Z,10.93
2017-01-06T03:14:52.179Z,11.02
2017-01-06T03:16:02.898Z,10.93
2017-01-06T03:17:13.223Z,10.74
2017-01-06T03:18:23.559Z,10.93
2017-01-06T03:19:33.903Z,11.12
2017-01-06T03:20:44.621Z,10.83
2017-01-06T03:21:54.976Z,10.83
2017-01-06T03:23:05.692Z,10.74
2017-01-06T03:24:16.416Z,10.74
2017-01-06T03:25:27.162Z,10.93
2017-01-06T03:26:37.485Z,10.74
2017-01-06T03:27:48.230Z,10.93
2017-01-06T03:28:58.550Z,10.93
2017-01-06T03:30:08.864Z,11.02
2017-01-06T03:31:19.581Z,11.02
2017-01-06T03:32:29.897Z,10.74
2017-01-06T03:33:40.220Z,10.83
2017-01-06T03:34:50.544Z,11.12
2017-01-06T03:36:01.261Z,11.02
2017-01-06T03:37:11.974Z,10.93
2017-01-06T03:38:22.288Z,11.12
2017-01-06T03:39:32.611Z,11.12
2017-01-06T03:40:43.331Z,11.02
2017-01-06T03:41:53.254Z,11.12
2017-01-06T03:43:03.174Z,10.93
2017-01-06T03:44:13.891Z,10.64
2017-01-06T03:45:24.211Z,10.83
2017-01-06T03:46:34.141Z,11.02
2017-01-06T03:47:43.664Z,10.93
2017-01-06T03:48:53.987Z,10.74
2017-01-06T03:50:03.914Z,11.02
2017-01-06T03:51:14.259Z,11.12
2017-01-06T03:52:24.975Z,11.13
2017-01-06T03:53:35.303Z,11.03
2017-01-06T03:54:45.633Z,10.64
2017-01-06T03:55:56.016Z,10.93
2017-01-06T03:57:05.952Z,11.03
2017-01-06T03:58:16.263Z,10.93
2017-01-06T03:59:26.189Z,10.93
2017-01-06T04:00:36.509Z,11.12
2017-01-06T04:01:46.436Z,11.22
2017-01-06T04:02:57.159Z,11.02
2017-01-06T04:04:07.873Z,10.84
2017-01-06T04:05:17.790Z,11.31
2017-01-06T04:06:28.539Z,11.12
2017-01-06T04:07:39.270Z,10.83
2017-01-06T04:08:49.592Z,11.13
2017-01-06T04:09:59.911Z,11.31
2017-01-06T04:11:09.855Z,10.83
2017-01-06T04:12:20.209Z,11.03
2017-01-06T04:13:30.920Z,11.12
2017-01-06T04:14:40.859Z,10.74
2017-01-06T04:15:51.179Z,10.74
2017-01-06T04:17:01.504Z,11.31
2017-01-06T04:18:11.831Z,10.93
2017-01-06T04:19:21.752Z,10.74
2017-01-06T04:20:32.072Z,10.93
2017-01-06T04:21:42.785Z,10.74
2017-01-06T04:22:53.502Z,10.74
2017-01-06T04:24:04.216Z,10.83
2017-01-06T04:25:14.136Z,10.93
2017-01-06T04:26:24.859Z,11.03
2017-01-06T04:27:35.179Z,11.02
2017-01-06T04:28:45.925Z,10.83
2017-01-06T04:29:56.642Z,10.93
2017-01-06T04:31:06.972Z,11.02
2017-01-06T04:32:17.694Z,11.02
2017-01-06T04:33:28.405Z,11.12
2017-01-06T04:34:38.338Z,11.02
2017-01-06T04:35:49.068Z,11.02
2017-01-06T04:36:59.778Z,10.93
2017-01-06T04:38:10.104Z,10.93
2017-01-06T04:39:20.815Z,10.93
2017-01-06T04:40:31.135Z,10.64
2017-01-06T04:41:41.465Z,11.02
2017-01-06T04:42:51.783Z,10.93
2017-01-06T04:44:02.121Z,10.93
2017-01-06T04:45:12.457Z,10.83
2017-01-06T04:46:23.176Z,10.74
2017-01-06T04:47:33.495Z,11.12
2017-01-06T04:48:43.430Z,10.84
2017-01-06T04:49:53.752Z,11.02
2017-01-06T04:51:04.478Z,10.93
2017-01-06T04:52:14.805Z,10.74
2017-01-06T04:53:25.525Z,11.02
2017-01-06T04:54:36.242Z,10.93
2017-01-06T04:55:46.957Z,10.93
2017-01-06T04:56:56.882Z,10.93
2017-01-06T04:58:07.602Z,10.93
2017-01-06T04:59:18.347Z,10.83
2017-01-06T05:00:28.280Z,10.93
2017-01-06T05:01:39.045Z,11.02
2017-01-06T05:02:49.758Z,11.02
2017-01-06T05:04:00.481Z,11.02
2017-01-06T05:05:10.808Z,11.12
2017-01-06T05:06:21.531Z,11.12
2017-01-06T05:07:31.861Z,11.22
2017-01-06T05:08:42.613Z,11.02
2017-01-06T05:09:52.932Z,10.45
2017-01-06T05:11:03.258Z,11.12
2017-01-06T05:12:13.579Z,10.45
2017-01-06T05:13:23.902Z,11.12
2017-01-06T05:14:34.619Z,10.55
2017-01-06T05:15:45.339Z,10.64
2017-01-06T05:16:55.659Z,10.64
2017-01-06T05:18:05.593Z,10.74
2017-01-06T05:19:16.331Z,10.74
2017-01-06T05:20:26.660Z,11.02
2017-01-06T05:21:37.415Z,10.64
2017-01-06T05:22:47.742Z,10.74
2017-01-06T05:23:58.071Z,10.35
2017-01-06T05:25:08.440Z,10.35
2017-01-06T05:26:19.166Z,10.45
2017-01-06T05:27:29.480Z,10.55
2017-01-06T05:28:39.812Z,10.35
2017-01-06T05:29:50.161Z,9.97
2017-01-06T05:31:00.880Z,10.16
2017-01-06T05:32:10.820Z,9.88
2017-01-06T05:33:21.554Z,9.97
2017-01-06T05:34:32.273Z,9.97
2017-01-06T05:35:43.025Z,9.88
2017-01-06T05:36:52.968Z,9.97
2017-01-06T05:38:03.682Z,9.97
2017-01-06T05:39:14.042Z,9.97
2017-01-06T05:40:24.360Z,9.68
2017-01-06T05:41:35.073Z,10.06
2017-01-06T05:42:45.397Z,9.97
2017-01-06T05:43:55.720Z,9.97
2017-01-06T05:45:05.656Z,9.97
2017-01-06T05:46:15.999Z,10.16
2017-01-06T05:47:25.921Z,9.78
2017-01-06T05:48:36.635Z,9.88
2017-01-06T05:49:47.358Z,9.78
2017-01-06T05:50:57.685Z,10.06
2017-01-06T05:52:08.011Z,10.06
2017-01-06T05:53:18.735Z,10.06
2017-01-06T05:54:29.067Z,9.68
2017-01-06T05:55:39.788Z,9.49
2017-01-06T05:56:50.117Z,9.68
2017-01-06T05:58:00.434Z,9.68
2017-01-06T05:59:10.354Z,9.68
2017-01-06T06:00:20.277Z,9.68
2017-01-06T06:01:30.710Z,9.78
2017-01-06T06:02:41.452Z,9.78
2017-01-06T06:03:52.168Z,9.78
2017-01-06T06:05:02.095Z,9.3
2017-01-06T06:06:12.412Z,9.49
2017-01-06T06:07:22.744Z,9.3
2017-01-06T06:08:33.487Z,9.39
2017-01-06T06:09:44.210Z,9.39
2017-01-06T06:10:54.533Z,9.49
2017-01-06T06:12:04.850Z,9.59
2017-01-06T06:13:15.564Z,9.49
2017-01-06T06:14:25.108Z,9.39
2017-01-06T06:15:35.825Z,9.3
2017-01-06T06:16:46.546Z,9.3
2017-01-06T06:17:57.262Z,9.3
2017-01-06T06:19:07.982Z,9.3
2017-01-06T06:20:18.695Z,9.39
2017-01-06T06:21:29.022Z,9.2
2017-01-06T06:22:39.771Z,9.2
2017-01-06T06:23:50.488Z,9.49
2017-01-06T06:25:01.197Z,9.3
2017-01-06T06:26:11.917Z,9.39
2017-01-06T06:27:22.237Z,9.39
2017-01-06T06:28:32.956Z,9.39
2017-01-06T06:29:43.671Z,9.3
2017-01-06T06:30:53.619Z,9.2
2017-01-06T06:32:03.931Z,9.3
2017-01-06T06:33:14.634Z,9.2
2017-01-06T06:34:24.573Z,9.3
2017-01-06T06:35:35.300Z,9.3
2017-01-06T06:36:45.235Z,9.3
2017-01-06T06:37:55.955Z,9.39
2017-01-06T06:39:06.285Z,9.2
2017-01-06T06:40:17.005Z,9.49
2017-01-06T06:41:27.364Z,9.11
2017-01-06T06:42:36.913Z,9.01
2017-01-06T06:43:46.460Z,9.2
2017-01-06T06:44:57.181Z,9.2
2017-01-06T06:46:07.508Z,9.2
2017-01-06T06:47:17.847Z,9.11
2017-01-06T06:48:28.160Z,9.2
2017-01-06T06:49:38.883Z,9.2
2017-01-06T06:50:49.604Z,9.2
2017-01-06T06:51:59.536Z,9.11
2017-01-06T06:53:09.856Z,9.3
2017-01-06T06:54:20.573Z,9.2
2017-01-06T06:55:31.328Z,9.2
2017-01-06T06:56:42.067Z,9.3
2017-01-06T06:57:52.797Z,9.11
2017-01-06T06:59:03.127Z,9.11
2017-01-06T07:00:13.840Z,9.3
2017-01-06T07:01:24.618Z,9.11
2017-01-06T07:02:35.504Z,9.11
2017-01-06T07:03:46.345Z,9.11
2017-01-06T07:04:57.164Z,9.2
2017-01-06T07:06:07.608Z,9.2
2017-01-06T07:07:17.673Z,9.11
2017-01-06T07:08:28.015Z,9.2
2017-01-06T07:09:38.741Z,9.3
2017-01-06T07:10:49.487Z,9.3
2017-01-06T07:11:59.870Z,9.3
2017-01-06T07:13:10.591Z,9.3
2017-01-06T07:14:20.984Z,9.3
2017-01-06T07:15:31.333Z,8.92
2017-01-06T07:16:41.278Z,8.82
2017-01-06T07:17:51.998Z,9.01
2017-01-06T07:19:02.740Z,9.01
2017-01-06T07:20:13.463Z,8.92
2017-01-06T07:21:24.282Z,8.82
2017-01-06T07:22:34.621Z,8.92
2017-01-06T07:23:44.576Z,8.82
2017-01-06T07:24:55.312Z,8.82
2017-01-06T07:26:05.706Z,8.92
2017-01-06T07:27:16.085Z,8.72
2017-01-06T07:28:26.908Z,8.62
2017-01-06T07:29:37.716Z,9.01
2017-01-06T07:30:48.481Z,8.92
2017-01-06T07:31:58.810Z,8.72
2017-01-06T07:33:09.540Z,9.01
2017-01-06T07:34:19.875Z,8.72
2017-01-06T07:35:29.805Z,8.92
2017-01-06T07:36:40.552Z,8.92
2017-01-06T07:37:51.274Z,8.72
2017-01-06T07:39:01.613Z,8.92
2017-01-06T07:40:11.933Z,9.01
2017-01-06T07:41:22.267Z,8.82
2017-01-06T07:42:32.602Z,9.11
2017-01-06T07:43:43.334Z,8.82
2017-01-06T07:44:53.655Z,8.82
2017-01-06T07:46:03.633Z,9.11
2017-01-06T07:47:13.968Z,8.92
2017-01-06T07:48:23.880Z,9.01
2017-01-06T07:49:34.167Z,9.01
2017-01-06T07:50:44.915Z,8.82
2017-01-06T07:51:55.651Z,8.82
2017-01-06T07:53:06.020Z,8.72
2017-01-06T07:54:16.889Z,8.44
2017-01-06T07:55:27.615Z,8.44
2017-01-06T07:56:37.955Z,8.53
2017-01-06T07:57:48.294Z,8.53
2017-01-06T07:58:58.630Z,8.53
2017-01-06T08:00:09.383Z,8.53
2017-01-06T08:01:20.253Z,8.62
2017-01-06T08:02:30.589Z,8.72
2017-01-06T08:03:41.322Z,8.72
2017-01-06T08:04:51.649Z,8.62
2017-01-06T08:06:01.985Z,8.53
2017-01-06T08:07:12.329Z,8.53
2017-01-06T08:08:23.069Z,8.44
2017-01-06T08:09:33.869Z,8.25
2017-01-06T08:10:43.830Z,8.53
2017-01-06T08:11:54.591Z,8.62
2017-01-06T08:13:05.332Z,8.53
2017-01-06T08:14:15.740Z,8.62
2017-01-06T08:15:25.718Z,8.62
2017-01-06T08:16:36.475Z,8.62
2017-01-06T08:17:47.220Z,8.53
2017-01-06T08:18:57.178Z,8.72
2017-01-06T08:20:06.733Z,8.62
2017-01-06T08:21:17.460Z,8.72
2017-01-06T08:22:27.806Z,8.62
2017-01-06T08:23:37.761Z,8.53
2017-01-06T08:24:48.086Z,8.72
2017-01-06T08:25:58.420Z,8.62
2017-01-06T08:27:08.846Z,8.44
2017-01-06T08:28:19.270Z,8.25
2017-01-06T08:29:29.239Z,8.34
2017-01-06T08:30:39.598Z,8.34
2017-01-06T08:31:49.957Z,8.44
2017-01-06T08:33:00.724Z,8.44
2017-01-06T08:34:11.444Z,8.05
2017-01-06T08:35:21.787Z,8.06
2017-01-06T08:36:31.723Z,8.44
2017-01-06T08:37:42.065Z,8.44
2017-01-06T08:38:52.794Z,7.96
2017-01-06T08:40:03.163Z,8.25
2017-01-06T08:41:13.908Z,8.06
2017-01-06T08:42:24.247Z,8.06
2017-01-06T08:43:34.986Z,8.34
2017-01-06T08:44:45.705Z,8.53
2017-01-06T08:45:55.659Z,8.06
2017-01-06T08:47:06.001Z,8.53
2017-01-06T08:48:16.734Z,8.25
2017-01-06T08:49:27.060Z,8.15
2017-01-06T08:50:37.783Z,8.44
2017-01-06T08:51:48.670Z,8.25
2017-01-06T08:52:59.009Z,8.44
2017-01-06T08:54:08.949Z,8.44
2017-01-06T08:55:18.897Z,8.25
2017-01-06T08:56:29.084Z,8.44
2017-01-06T08:57:39.422Z,8.44
2017-01-06T08:58:50.155Z,8.44
2017-01-06T09:00:00.879Z,8.34
2017-01-06T09:01:11.631Z,8.25
2017-01-06T09:02:22.037Z,8.44
2017-01-06T09:03:32.508Z,8.44
2017-01-06T09:04:42.828Z,8.44
2017-01-06T09:05:53.161Z,8.34
2017-01-06T09:07:03.887Z,8.34
2017-01-06T09:08:14.233Z,8.15
2017-01-06T09:09:23.763Z,8.34
2017-01-06T09:10:34.495Z,8.25
2017-01-06T09:11:44.838Z,8.25
2017-01-06T09:12:55.209Z,8.15
2017-01-06T09:14:06.007Z,8.15
2017-01-06T09:15:16.800Z,8.06
2017-01-06T09:16:27.149Z,7.96
2017-01-06T09:17:37.907Z,7.96
2017-01-06T09:18:48.251Z,7.86
2017-01-06T09:19:58.173Z,8.15
2017-01-06T09:21:08.922Z,8.15
2017-01-06T09:22:19.655Z,7.96
2017-01-06T09:23:29.590Z,7.86
2017-01-06T09:24:39.926Z,8.06
2017-01-06T09:25:50.653Z,7.77
2017-01-06T09:27:01.370Z,7.77
2017-01-06T09:28:11.716Z,7.86
2017-01-06T09:29:22.096Z,7.77
2017-01-06T09:30:32.835Z,7.86
2017-01-06T09:31:42.765Z,7.57
2017-01-06T09:32:52.707Z,7.86
2017-01-06T09:34:02.250Z,8.06
2017-01-06T09:35:12.976Z,8.06
2017-01-06T09:36:23.300Z,7.96
2017-01-06T09:37:33.626Z,7.86
2017-01-06T09:38:44.352Z,7.96
2017-01-06T09:39:55.092Z,8.06
2017-01-06T09:41:05.838Z,7.96
2017-01-06T09:42:16.372Z,8.06
2017-01-06T09:43:26.702Z,7.96
2017-01-06T09:44:35.844Z,8.06
2017-01-06T09:45:46.164Z,7.96
2017-01-06T09:46:56.897Z,7.77
2017-01-06T09:48:07.240Z,8.15
2017-01-06T09:49:17.963Z,7.86
2017-01-06T09:50:28.686Z,7.77
2017-01-06T09:51:39.413Z,7.67
2017-01-06T09:52:50.129Z,7.57
2017-01-06T09:54:00.865Z,7.67
2017-01-06T09:55:11.187Z,7.39
2017-01-06T09:56:21.918Z,7.48
2017-01-06T09:57:32.664Z,7.48
2017-01-06T09:58:42.988Z,7.57
2017-01-06T09:59:52.926Z,7.48
2017-01-06T10:01:03.653Z,7.68
2017-01-06T10:02:14.011Z,7.48
2017-01-06T10:03:24.727Z,7.57
2017-01-06T10:04:35.057Z,7.58
2017-01-06T10:05:45.387Z,7.67
2017-01-06T10:06:55.326Z,7.48
2017-01-06T10:08:05.656Z,7.48
2017-01-06T10:09:16.400Z,7.48
2017-01-06T10:10:26.743Z,7.29
2017-01-06T10:11:37.486Z,7.57
2017-01-06T10:12:47.421Z,7.58
2017-01-06T10:13:57.744Z,7.67
2017-01-06T10:15:08.132Z,7.67
2017-01-06T10:16:18.484Z,7.68
2017-01-06T10:17:28.426Z,7.77
2017-01-06T10:18:38.372Z,7.67
2017-01-06T10:19:48.733Z,7.77
2017-01-06T10:20:59.475Z,7.67
2017-01-06T10:22:10.231Z,7.67
2017-01-06T10:23:20.956Z,7.77
2017-01-06T10:24:31.674Z,7.77
2017-01-06T10:25:42.423Z,7.77
2017-01-06T10:26:52.753Z,7.68
2017-01-06T10:28:03.085Z,7.97
2017-01-06T10:29:13.831Z,7.87
2017-01-06T10:30:23.777Z,7.68
2017-01-06T10:31:34.116Z,7.48
2017-01-06T10:32:44.084Z,7.48
2017-01-06T10:33:54.827Z,7.58
2017-01-06T10:35:05.191Z,7.48
2017-01-06T10:36:15.518Z,7.1
2017-01-06T10:37:25.451Z,7.58
2017-01-06T10:38:35.796Z,7.48
2017-01-06T10:39:45.345Z,7.58
2017-01-06T10:40:56.103Z,7.77
2017-01-06T10:42:06.056Z,8.54
2017-01-06T10:43:15.994Z,9.12
2017-01-06T10:44:25.943Z,8.83
2017-01-06T10:45:35.892Z,9.02
2017-01-06T10:46:46.660Z,9.12
2017-01-06T10:47:57.461Z,8.73
2017-01-06T10:49:07.790Z,8.64
2017-01-06T10:50:17.740Z,8.73
2017-01-06T10:51:28.481Z,9.12
2017-01-06T10:52:39.227Z,9.12
2017-01-06T10:53:49.573Z,9.12
2017-01-06T10:54:59.909Z,9.21
2017-01-06T10:56:10.242Z,9.31
2017-01-06T10:57:20.985Z,9.12
2017-01-06T10:58:30.924Z,9.21
2017-01-06T10:59:41.652Z,9.31
2017-01-06T11:00:52.066Z,9.12
2017-01-06T11:02:02.398Z,9.21
2017-01-06T11:03:12.737Z,9.21
2017-01-06T11:04:22.712Z,9.21
2017-01-06T11:05:32.646Z,9.31
2017-01-06T11:06:42.584Z,9.21
2017-01-06T11:07:53.330Z,9.31
2017-01-06T11:09:03.686Z,9.31
2017-01-06T11:10:14.043Z,9.12
2017-01-06T11:11:24.789Z,9.31
2017-01-06T11:12:35.516Z,9.02
2017-01-06T11:13:46.239Z,9.31
2017-01-06T11:14:56.994Z,9.5
2017-01-06T11:16:06.959Z,9.31
2017-01-06T11:17:17.695Z,9.41
2017-01-06T11:18:28.031Z,9.22
2017-01-06T11:19:38.817Z,9.31
2017-01-06T11:20:49.555Z,9.41
2017-01-06T11:21:59.887Z,9.5
2017-01-06T11:23:10.229Z,9.7
2017-01-06T11:24:20.968Z,9.22
2017-01-06T11:25:31.321Z,9.31
2017-01-06T11:26:42.070Z,9.5
2017-01-06T11:27:51.612Z,9.5
2017-01-06T11:29:02.627Z,9.7
2017-01-06T11:30:12.958Z,9.79
2017-01-06T11:31:22.909Z,9.79
2017-01-06T11:32:33.445Z,9.7
2017-01-06T11:33:44.208Z,9.89
2017-01-06T11:34:54.946Z,9.89
2017-01-06T11:36:05.693Z,9.41
2017-01-06T11:37:16.413Z,9.89
2017-01-06T11:38:25.955Z,9.89
2017-01-06T11:39:35.871Z,10.17
2017-01-06T11:40:46.620Z,9.79
2017-01-06T11:41:57.347Z,9.99
2017-01-06T11:43:08.089Z,9.79
2017-01-06T11:44:18.412Z,9.89
2017-01-06T11:45:28.755Z,9.99
2017-01-06T11:46:39.113Z,9.89
2017-01-06T11:47:49.459Z,9.31
2017-01-06T11:48:58.991Z,9.99
2017-01-06T11:50:09.724Z,9.7
2017-01-06T11:51:20.056Z,9.41
2017-01-06T11:52:30.387Z,9.79
2017-01-06T11:53:40.731Z,9.5
2017-01-06T11:54:50.258Z,9.22
2017-01-06T11:56:00.985Z,9.41
2017-01-06T11:57:11.733Z,9.41
2017-01-06T11:58:22.478Z,9.79
2017-01-06T11:59:33.205Z,9.5
2017-01-06T12:00:43.147Z,10.08
2017-01-06T12:01:53.512Z,9.7
2017-01-06T12:03:03.057Z,9.5
2017-01-06T12:04:13.783Z,10.08
2017-01-06T12:05:24.516Z,9.31
2017-01-06T12:06:34.471Z,10.08
2017-01-06T12:07:44.404Z,9.99
2017-01-06T12:08:54.724Z,10.17
2017-01-06T12:10:05.069Z,9.99
2017-01-06T12:11:16.642Z,9.41
2017-01-06T12:12:26.973Z,9.31
2017-01-06T12:13:37.300Z,9.31
2017-01-06T12:14:47.639Z,9.7
2017-01-06T12:15:57.974Z,9.5
2017-01-06T12:17:08.299Z,9.89
2017-01-06T12:18:18.626Z,9.89
2017-01-06T12:19:28.959Z,9.89
2017-01-06T12:20:39.298Z,9.79
2017-01-06T12:21:50.034Z,10.08
2017-01-06T12:23:00.764Z,10.17
2017-01-06T12:24:10.719Z,9.79
2017-01-06T12:25:21.052Z,9.7
2017-01-06T12:26:30.994Z,10.08
2017-01-06T12:27:41.350Z,9.41
2017-01-06T12:28:51.708Z,9.31
2017-01-06T12:30:02.554Z,9.7
2017-01-06T12:31:12.982Z,9.41
2017-01-06T12:32:23.735Z,9.5
2017-01-06T12:33:34.486Z,9.22
2017-01-06T12:34:44.476Z,9.22
2017-01-06T12:35:54.825Z,9.22
2017-01-06T12:37:05.583Z,9.41
2017-01-06T12:38:15.919Z,9.31
2017-01-06T12:39:26.281Z,9.22
2017-01-06T12:40:37.032Z,9.22
2017-01-06T12:41:46.994Z,9.22
2017-01-06T12:42:57.769Z,9.22
2017-01-06T12:44:08.534Z,9.31
2017-01-06T12:45:19.295Z,9.12
2017-01-06T12:46:29.654Z,9.22
2017-01-06T12:47:40.012Z,9.22
2017-01-06T12:48:50.803Z,9.41
2017-01-06T12:50:01.557Z,9.31
2017-01-06T12:51:11.919Z,9.22
2017-01-06T12:52:22.787Z,9.12
2017-01-06T12:53:33.667Z,9.31
2017-01-06T12:54:44.444Z,9.5
2017-01-06T12:55:55.196Z,9.5
2017-01-06T12:57:05.141Z,9.6
2017-01-06T12:58:15.122Z,9.41
2017-01-06T12:59:25.494Z,9.7
2017-01-06T13:00:35.872Z,9.89
2017-01-06T13:01:46.213Z,9.41
2017-01-06T13:02:56.188Z,9.79
2017-01-06T13:04:07.001Z,9.5
2017-01-06T13:05:17.359Z,9.79
2017-01-06T13:06:27.740Z,9.41
2017-01-06T13:07:37.688Z,9.41
2017-01-06T13:08:48.428Z,9.22
2017-01-06T13:09:59.187Z,9.12
2017-01-06T13:11:09.965Z,8.73
2017-01-06T13:12:19.976Z,8.93
2017-01-06T13:13:30.338Z,8.93
2017-01-06T13:14:40.812Z,8.93
2017-01-06T13:15:51.711Z,8.83
2017-01-06T13:17:02.639Z,9.31
2017-01-06T13:18:13.030Z,9.03
2017-01-06T13:19:23.817Z,8.73
2017-01-06T13:20:34.204Z,8.93
2017-01-06T13:21:44.619Z,8.93
2017-01-06T13:22:54.992Z,9.31
2017-01-06T13:24:05.311Z,8.64
2017-01-06T13:25:16.182Z,9.03
2017-01-06T13:26:27.128Z,8.93
2017-01-06T13:27:37.596Z,8.93
2017-01-06T13:28:48.181Z,9.12
2017-01-06T13:29:58.732Z,8.93
2017-01-06T13:31:09.749Z,9.03
2017-01-06T13:32:20.123Z,8.73
2017-01-06T13:33:30.494Z,9.22
2017-01-06T13:34:41.253Z,9.03
2017-01-06T13:35:51.749Z,9.22
2017-01-06T13:37:02.282Z,9.31
2017-01-06T13:38:13.063Z,9.31
2017-01-06T13:39:23.495Z,9.22
2017-01-06T13:40:34.276Z,9.12
2017-01-06T13:41:44.746Z,9.03
2017-01-06T13:42:55.328Z,9.12
2017-01-06T13:44:05.466Z,9.22
2017-01-06T13:45:16.028Z,9.12
2017-01-06T13:46:26.818Z,8.93
2017-01-06T13:47:37.314Z,9.03
2017-01-06T13:48:48.152Z,8.93
2017-01-06T13:49:58.697Z,8.83
2017-01-06T13:51:08.836Z,9.03
2017-01-06T13:52:19.305Z,9.03
2017-01-06T13:53:30.310Z,8.73
2017-01-06T13:54:40.703Z,9.03
2017-01-06T13:55:51.688Z,8.93
2017-01-06T13:57:01.893Z,8.73
2017-01-06T13:58:13.061Z,9.12
2017-01-06T13:59:23.880Z,9.89
2017-01-06T14:00:34.578Z,9.5
2017-01-06T14:01:45.675Z,9.31
2017-01-06T14:02:56.821Z,9.5
2017-01-06T14:04:07.900Z,8.93
2017-01-06T14:05:18.655Z,9.7
2017-01-06T14:06:29.216Z,9.41
2017-01-06T14:07:39.791Z,9.79
2017-01-06T14:08:51.131Z,9.6
2017-01-06T14:10:02.067Z,9.7
2017-01-06T14:11:13.229Z,9.5
2017-01-06T14:12:23.851Z,9.79
2017-01-06T14:13:34.776Z,9.89
2017-01-06T14:14:45.317Z,9.89
2017-01-06T14:15:56.159Z,10.17
2017-01-06T14:17:06.953Z,9.79
2017-01-06T14:18:18.431Z,9.89
2017-01-06T14:19:29.538Z,9.89
2017-01-06T14:20:40.165Z,9.89
2017-01-06T14:21:51.477Z,10.08
2017-01-06T14:23:02.667Z,9.89
2017-01-06T14:24:13.590Z,9.89
2017-01-06T14:25:24.322Z,10.08
2017-01-06T14:26:34.905Z,9.5
2017-01-06T14:27:45.240Z,9.79
2017-01-06T14:28:56.246Z,9.7
2017-01-06T14:30:07.247Z,9.31
2017-01-06T14:31:18.492Z,9.03
2017-01-06T14:32:30.438Z,8.93
2017-01-06T14:33:41.244Z,8.93
2017-01-06T14:34:52.784Z,9.31
2017-01-06T14:36:04.092Z,9.12
2017-01-06T14:37:14.601Z,9.03
2017-01-06T14:38:25.430Z,9.03
2017-01-06T14:39:36.128Z,8.83
2017-01-06T14:40:47.936Z,9.22
2017-01-06T14:41:58.800Z,9.31
2017-01-06T14:43:09.824Z,8.83
2017-01-06T14:44:21.260Z,8.93
2017-01-06T14:45:31.997Z,9.22
2017-01-06T14:46:43.720Z,9.12
2017-01-06T14:47:54.810Z,9.22
2017-01-06T14:49:05.850Z,9.02
2017-01-06T14:50:16.835Z,9.31
2017-01-06T14:51:27.903Z,9.03
2017-01-06T14:52:38.460Z,9.31
2017-01-06T14:53:49.537Z,9.41
2017-01-06T14:55:01.367Z,9.31
2017-01-06T14:56:12.011Z,9.41
2017-01-06T14:57:22.669Z,9.21
2017-01-06T14:58:34.073Z,9.31
2017-01-06T14:59:45.291Z,9.22
2017-01-06T15:00:56.413Z,9.41
2017-01-06T15:02:07.658Z,9.41
2017-01-06T15:03:18.807Z,9.21
2017-01-06T15:04:29.373Z,9.41
2017-01-06T15:05:41.398Z,9.41
2017-01-06T15:06:52.704Z,9.31
2017-01-06T15:08:04.093Z,9.41
2017-01-06T15:09:15.450Z,9.41
2017-01-06T15:10:26.685Z,9.31
2017-01-06T15:11:38.771Z,9.21
2017-01-06T15:12:49.660Z,8.83
2017-01-06T15:14:01.149Z,8.92
2017-01-06T15:15:11.869Z,8.73
2017-01-06T15:16:23.004Z,9.02
2017-01-06T15:17:34.827Z,9.12
2017-01-06T15:18:46.902Z,9.21
2017-01-06T15:19:58.697Z,9.12
2017-01-06T15:21:09.997Z,9.12
2017-01-06T15:22:21.796Z,9.31
2017-01-06T15:23:33.244Z,9.12
2017-01-06T15:24:44.446Z,9.02
2017-01-06T15:25:56.821Z,9.31
2017-01-06T15:27:08.088Z,9.31
2017-01-06T15:28:20.146Z,9.21